No particular awareness of the weather is required.    There are no Weather-warnings


Meteo18 Weather Cam more information Meteo18 Weather Cam


Thunder radar more information blitzortung!


Rain radar more information rain snow radar


Visit our other weather sites:

Template documentation
and downloads

And another site



Weather Underground History page Text

Daily Summary for November 17, 2017 Units:  Both    English   Metric
« Previous Day
Next Day »
Daily Weekly Monthly Yearly Custom
  High: Low: Average:
Temperature: TemperatureC °F /  -17.8 °C 2.0 °F /  -16.7 °C 6.6 °F /  -14.1 °C
Dew Point: DewpointC °F /  -17.8 °C 1.6 °F /  -16.9 °C 5.6 °F /  -14.7 °C
Humidity: Humidity % 86 % 93 %
Wind Speed: WindSpeedKMH mph /  0 km/h - 3.8 mph /  6.1 km/h
Wind Gust: WindSpeedGustKMH mph /  0 km/h - -
Wind:- - East
Pressure: PressurehPa in /  0 hPa 1026.0 in /  34740.4 hPa -
Precipitation: 0.0 in /  0 mm    
Historical Graphs
 
 
Tabular Data for November 17, 2017
Time Temperature Dew Point Pressure Wind Wind Speed Wind Gust Humidity Rainfall Rate (Hourly)
TemperatureC °F /  -17.8 °C DewpointC °F /  -17.8 °C PressurehPa in /  0 hPa Calm     Humidity % HourlyPrecipMM in /  0 mm
00:02 2.3 °F /  -16.5 °C 1.9 °F /  -16.7 °C 1026.3 in /  34750.5 hPa Calm     97 % 0.0 in /  0 mm
00:07 2.3 °F /  -16.5 °C 1.9 °F /  -16.7 °C 1026.6 in /  34760.7 hPa Calm   1.6 mph /  2.6 km/h 97 % 0.0 in /  0 mm
00:17 2.3 °F /  -16.5 °C 1.9 °F /  -16.7 °C 1026.6 in /  34760.7 hPa Calm   1.6 mph /  2.6 km/h 97 % 0.0 in /  0 mm
00:22 2.4 °F /  -16.4 °C 2.0 °F /  -16.7 °C 1026.6 in /  34760.7 hPa Calm   1.6 mph /  2.6 km/h 97 % 0.0 in /  0 mm
00:27 2.4 °F /  -16.4 °C 2.0 °F /  -16.7 °C 1026.6 in /  34760.7 hPa ENE 1.6 mph /  2.6 km/h 3.2 mph /  5.1 km/h 97 % 0.0 in /  0 mm
00:32 2.4 °F /  -16.4 °C 2.0 °F /  -16.7 °C 1026.6 in /  34760.7 hPa Calm   3.2 mph /  5.1 km/h 97 % 0.0 in /  0 mm
00:42 2.5 °F /  -16.4 °C 2.1 °F /  -16.6 °C 1026.6 in /  34760.7 hPa ENE 3.2 mph /  5.1 km/h 3.2 mph /  5.1 km/h 97 % 0.0 in /  0 mm
00:52 2.6 °F /  -16.3 °C 2.2 °F /  -16.6 °C 1026.6 in /  34760.7 hPa NE 1.6 mph /  2.6 km/h 4.8 mph /  7.7 km/h 97 % 0.0 in /  0 mm
00:57 2.6 °F /  -16.3 °C 2.2 °F /  -16.6 °C 1026.6 in /  34760.7 hPa Calm   4.8 mph /  7.7 km/h 97 % 0.0 in /  0 mm
01:02 2.6 °F /  -16.3 °C 2.2 °F /  -16.6 °C 1026.6 in /  34760.7 hPa Calm   4.8 mph /  7.7 km/h 97 % 0.0 in /  0 mm
01:12 2.7 °F /  -16.3 °C 2.4 °F /  -16.4 °C 1026.6 in /  34760.7 hPa Calm   3.2 mph /  5.1 km/h 98 % 0.0 in /  0 mm
01:22 2.7 °F /  -16.3 °C 2.4 °F /  -16.4 °C 1026.6 in /  34760.7 hPa NE 1.6 mph /  2.6 km/h 4.8 mph /  7.7 km/h 98 % 0.0 in /  0 mm
01:27 2.7 °F /  -16.3 °C 2.3 °F /  -16.5 °C 1026.3 in /  34750.5 hPa Calm   4.8 mph /  7.7 km/h 97 % 0.0 in /  0 mm
01:32 2.7 °F /  -16.3 °C 2.4 °F /  -16.4 °C 1026.3 in /  34750.5 hPa NNE 1.6 mph /  2.6 km/h 4.8 mph /  7.7 km/h 98 % 0.0 in /  0 mm
01:37 2.7 °F /  -16.3 °C 2.4 °F /  -16.4 °C 1026.3 in /  34750.5 hPa NE 1.6 mph /  2.6 km/h 4.8 mph /  7.7 km/h 98 % 0.0 in /  0 mm
01:42 2.7 °F /  -16.3 °C 2.4 °F /  -16.4 °C 1026.3 in /  34750.5 hPa NNE 1.6 mph /  2.6 km/h 4.8 mph /  7.7 km/h 98 % 0.0 in /  0 mm
01:52 2.8 °F /  -16.2 °C 2.5 °F /  -16.4 °C 1026.3 in /  34750.5 hPa NE 1.6 mph /  2.6 km/h 4.8 mph /  7.7 km/h 98 % 0.0 in /  0 mm
02:02 2.8 °F /  -16.2 °C 2.5 °F /  -16.4 °C 1026.3 in /  34750.5 hPa Calm   4.8 mph /  7.7 km/h 98 % 0.0 in /  0 mm
02:12 2.9 °F /  -16.2 °C 2.6 °F /  -16.3 °C 1026.3 in /  34750.5 hPa Calm   3.2 mph /  5.1 km/h 98 % 0.0 in /  0 mm
02:17 2.9 °F /  -16.2 °C 2.6 °F /  -16.3 °C 1026.3 in /  34750.5 hPa NNE 1.6 mph /  2.6 km/h 3.2 mph /  5.1 km/h 98 % 0.0 in /  0 mm
02:22 2.4 °F /  -16.4 °C 2.4 °F /  -16.4 °C 1026.3 in /  34750.5 hPa Calm   6.4 mph /  10.3 km/h 100 % 0.0 in /  0 mm
02:32 2.4 °F /  -16.4 °C 2.4 °F /  -16.4 °C 1026.3 in /  34750.5 hPa Calm   6.4 mph /  10.3 km/h 100 % 0.0 in /  0 mm
08:47 2.1 °F /  -16.6 °C 1.7 °F /  -16.8 °C 1027.3 in /  34784.4 hPa Calm     97 % 0.0 in /  0 mm
08:52 2.0 °F /  -16.7 °C 1.6 °F /  -16.9 °C 1027.3 in /  34784.4 hPa Calm     97 % 0.0 in /  0 mm
08:57 2.0 °F /  -16.7 °C 1.6 °F /  -16.9 °C 1027.3 in /  34784.4 hPa Calm   1.6 mph /  2.6 km/h 97 % 0.0 in /  0 mm
09:02 2.0 °F /  -16.7 °C 1.6 °F /  -16.9 °C 1027.3 in /  34784.4 hPa Calm   1.6 mph /  2.6 km/h 97 % 0.0 in /  0 mm
09:07 2.1 °F /  -16.6 °C 1.7 °F /  -16.8 °C 1027.3 in /  34784.4 hPa Calm   1.6 mph /  2.6 km/h 97 % 0.0 in /  0 mm
09:12 2.2 °F /  -16.6 °C 1.9 °F /  -16.7 °C 1027.3 in /  34784.4 hPa Calm   1.6 mph /  2.6 km/h 98 % 0.0 in /  0 mm
09:17 2.2 °F /  -16.6 °C 1.9 °F /  -16.7 °C 1027.3 in /  34784.4 hPa Calm   1.6 mph /  2.6 km/h 98 % 0.0 in /  0 mm
09:22 2.3 °F /  -16.5 °C 2.0 °F /  -16.7 °C 1027.3 in /  34784.4 hPa Calm   1.6 mph /  2.6 km/h 98 % 0.0 in /  0 mm
09:32 2.5 °F /  -16.4 °C 2.2 °F /  -16.6 °C 1027.3 in /  34784.4 hPa Calm   1.6 mph /  2.6 km/h 98 % 0.0 in /  0 mm
09:37 2.8 °F /  -16.2 °C 2.5 °F /  -16.4 °C 1027.3 in /  34784.4 hPa Calm   1.6 mph /  2.6 km/h 98 % 0.0 in /  0 mm
09:42 2.7 °F /  -16.3 °C 2.4 °F /  -16.4 °C 1027.3 in /  34784.4 hPa Calm   1.6 mph /  2.6 km/h 98 % 0.0 in /  0 mm
09:47 2.8 °F /  -16.2 °C 2.5 °F /  -16.4 °C 1027.3 in /  34784.4 hPa Calm   1.6 mph /  2.6 km/h 98 % 0.0 in /  0 mm
09:52 2.9 °F /  -16.2 °C 2.6 °F /  -16.3 °C 1027.3 in /  34784.4 hPa Calm   1.6 mph /  2.6 km/h 98 % 0.0 in /  0 mm
09:57 3.1 °F /  -16.1 °C 2.8 °F /  -16.2 °C 1027.3 in /  34784.4 hPa Calm   1.6 mph /  2.6 km/h 98 % 0.0 in /  0 mm
10:02 3.1 °F /  -16.1 °C 2.8 °F /  -16.2 °C 1027.3 in /  34784.4 hPa ENE 1.6 mph /  2.6 km/h 1.6 mph /  2.6 km/h 98 % 0.0 in /  0 mm
10:12 3.4 °F /  -15.9 °C 3.1 °F /  -16.1 °C 1027.7 in /  34797.9 hPa NNE 1.6 mph /  2.6 km/h 3.2 mph /  5.1 km/h 98 % 0.0 in /  0 mm
10:17 3.4 °F /  -15.9 °C 3.1 °F /  -16.1 °C 1027.7 in /  34797.9 hPa ENE 1.6 mph /  2.6 km/h 3.2 mph /  5.1 km/h 98 % 0.0 in /  0 mm
10:22 3.6 °F /  -15.8 °C 3.3 °F /  -15.9 °C 1027.7 in /  34797.9 hPa NE 1.6 mph /  2.6 km/h 3.2 mph /  5.1 km/h 98 % 0.0 in /  0 mm
10:27 3.6 °F /  -15.8 °C 3.3 °F /  -15.9 °C 1027.7 in /  34797.9 hPa Calm   3.2 mph /  5.1 km/h 98 % 0.0 in /  0 mm
10:32 3.6 °F /  -15.8 °C 3.3 °F /  -15.9 °C 1027.7 in /  34797.9 hPa Calm   3.2 mph /  5.1 km/h 98 % 0.0 in /  0 mm
10:37 3.9 °F /  -15.6 °C 3.6 °F /  -15.8 °C 1027.3 in /  34784.4 hPa NE 1.6 mph /  2.6 km/h 3.2 mph /  5.1 km/h 98 % 0.0 in /  0 mm
10:42 4.1 °F /  -15.5 °C 3.8 °F /  -15.7 °C 1027.3 in /  34784.4 hPa Calm   3.2 mph /  5.1 km/h 98 % 0.0 in /  0 mm
10:47 4.4 °F /  -15.3 °C 4.1 °F /  -15.5 °C 1027.3 in /  34784.4 hPa Calm   3.2 mph /  5.1 km/h 98 % 0.0 in /  0 mm
10:52 4.5 °F /  -15.3 °C 4.2 °F /  -15.4 °C 1027.3 in /  34784.4 hPa Calm   3.2 mph /  5.1 km/h 98 % 0.0 in /  0 mm
10:57 4.7 °F /  -15.2 °C 4.4 °F /  -15.3 °C 1027.3 in /  34784.4 hPa Calm   3.2 mph /  5.1 km/h 98 % 0.0 in /  0 mm
11:02 4.8 °F /  -15.1 °C 4.5 °F /  -15.3 °C 1027.3 in /  34784.4 hPa NE 1.6 mph /  2.6 km/h 3.2 mph /  5.1 km/h 98 % 0.0 in /  0 mm
11:07 4.9 °F /  -15.1 °C 4.6 °F /  -15.2 °C 1027.7 in /  34797.9 hPa Calm   4.8 mph /  7.7 km/h 98 % 0.0 in /  0 mm
11:12 5.1 °F /  -14.9 °C 4.8 °F /  -15.1 °C 1027.7 in /  34797.9 hPa ENE 6.4 mph /  10.3 km/h 6.4 mph /  10.3 km/h 98 % 0.0 in /  0 mm
11:17 5.2 °F /  -14.9 °C 4.9 °F /  -15.1 °C 1027.7 in /  34797.9 hPa ENE 9.7 mph /  15.6 km/h 17.7 mph /  28.5 km/h 98 % 0.0 in /  0 mm
11:22 5.3 °F /  -14.8 °C 5.0 °F /  -15 °C 1027.3 in /  34784.4 hPa NE 9.7 mph /  15.6 km/h 17.7 mph /  28.5 km/h 98 % 0.0 in /  0 mm
11:27 5.3 °F /  -14.8 °C 5.0 °F /  -15 °C 1027.3 in /  34784.4 hPa NE 3.2 mph /  5.1 km/h 17.7 mph /  28.5 km/h 98 % 0.0 in /  0 mm
11:32 5.5 °F /  -14.7 °C 5.2 °F /  -14.9 °C 1027.3 in /  34784.4 hPa NNE 9.7 mph /  15.6 km/h 17.7 mph /  28.5 km/h 98 % 0.0 in /  0 mm
11:42 5.9 °F /  -14.5 °C 5.6 °F /  -14.7 °C 1027.3 in /  34784.4 hPa NNE 14.5 mph /  23.3 km/h 20.9 mph /  33.6 km/h 98 % 0.0 in /  0 mm
11:47 5.9 °F /  -14.5 °C 5.5 °F /  -14.7 °C 1027.3 in /  34784.4 hPa NE 19.3 mph /  31.1 km/h 22.5 mph /  36.2 km/h 97 % 0.0 in /  0 mm
11:52 5.9 °F /  -14.5 °C 5.5 °F /  -14.7 °C 1027.3 in /  34784.4 hPa NE 4.8 mph /  7.7 km/h 22.5 mph /  36.2 km/h 97 % 0.0 in /  0 mm
11:57 6.1 °F /  -14.4 °C 5.7 °F /  -14.6 °C 1027.0 in /  34774.2 hPa NE 14.5 mph /  23.3 km/h 24.1 mph /  38.8 km/h 97 % 0.0 in /  0 mm
12:02 6.2 °F /  -14.3 °C 5.6 °F /  -14.7 °C 1027.0 in /  34774.2 hPa NE 9.7 mph /  15.6 km/h 24.1 mph /  38.8 km/h 96 % 0.0 in /  0 mm
12:07 6.3 °F /  -14.3 °C 5.7 °F /  -14.6 °C 1027.0 in /  34774.2 hPa NE 1.6 mph /  2.6 km/h 20.9 mph /  33.6 km/h 96 % 0.0 in /  0 mm
12:12 6.6 °F /  -14.1 °C 5.9 °F /  -14.5 °C 1027.0 in /  34774.2 hPa North 11.3 mph /  18.2 km/h 20.9 mph /  33.6 km/h 95 % 0.0 in /  0 mm
12:17 6.8 °F /  -14 °C 6.1 °F /  -14.4 °C 1027.0 in /  34774.2 hPa NNE 12.9 mph /  20.8 km/h 20.9 mph /  33.6 km/h 95 % 0.0 in /  0 mm
12:22 6.8 °F /  -14 °C 5.9 °F /  -14.5 °C 1027.0 in /  34774.2 hPa NNE 12.9 mph /  20.8 km/h 20.9 mph /  33.6 km/h 94 % 0.0 in /  0 mm
12:42 7.2 °F /  -13.8 °C 6.1 °F /  -14.4 °C 1026.6 in /  34760.7 hPa NNE 3.2 mph /  5.1 km/h 20.9 mph /  33.6 km/h 93 % 0.0 in /  0 mm
12:47 7.2 °F /  -13.8 °C 6.0 °F /  -14.4 °C 1026.6 in /  34760.7 hPa NE 8.0 mph /  12.9 km/h 17.7 mph /  28.5 km/h 92 % 0.0 in /  0 mm
12:52 7.2 °F /  -13.8 °C 6.0 °F /  -14.4 °C 1026.6 in /  34760.7 hPa NNE 9.7 mph /  15.6 km/h 17.7 mph /  28.5 km/h 92 % 0.0 in /  0 mm
13:02 7.4 °F /  -13.7 °C 6.2 °F /  -14.3 °C 1026.6 in /  34760.7 hPa NE 1.6 mph /  2.6 km/h 11.3 mph /  18.2 km/h 92 % 0.0 in /  0 mm
13:12 7.8 °F /  -13.4 °C 6.6 °F /  -14.1 °C 1027.0 in /  34774.2 hPa NE 4.8 mph /  7.7 km/h 11.3 mph /  18.2 km/h 92 % 0.0 in /  0 mm
13:17 7.9 °F /  -13.4 °C 6.5 °F /  -14.2 °C 1026.6 in /  34760.7 hPa NE 6.4 mph /  10.3 km/h 9.7 mph /  15.6 km/h 91 % 0.0 in /  0 mm
13:27 8.2 °F /  -13.2 °C 6.8 °F /  -14 °C 1026.6 in /  34760.7 hPa NNE 4.8 mph /  7.7 km/h 11.3 mph /  18.2 km/h 91 % 0.0 in /  0 mm
13:32 8.3 °F /  -13.2 °C 6.8 °F /  -14 °C 1026.6 in /  34760.7 hPa East 4.8 mph /  7.7 km/h 11.3 mph /  18.2 km/h 90 % 0.0 in /  0 mm
13:42 8.5 °F /  -13.1 °C 7.0 °F /  -13.9 °C 1026.6 in /  34760.7 hPa NE 4.8 mph /  7.7 km/h 14.5 mph /  23.3 km/h 90 % 0.0 in /  0 mm
13:52 8.9 °F /  -12.8 °C 7.2 °F /  -13.8 °C 1026.6 in /  34760.7 hPa NE 11.3 mph /  18.2 km/h 14.5 mph /  23.3 km/h 89 % 0.0 in /  0 mm
13:57 9.1 °F /  -12.7 °C 7.4 °F /  -13.7 °C 1026.3 in /  34750.5 hPa ENE 3.2 mph /  5.1 km/h 14.5 mph /  23.3 km/h 89 % 0.0 in /  0 mm
14:02 9.1 °F /  -12.7 °C 7.4 °F /  -13.7 °C 1026.3 in /  34750.5 hPa NE 1.6 mph /  2.6 km/h 14.5 mph /  23.3 km/h 89 % 0.0 in /  0 mm
14:12 9.2 °F /  -12.7 °C 7.5 °F /  -13.6 °C 1026.3 in /  34750.5 hPa East 6.4 mph /  10.3 km/h 16.1 mph /  25.9 km/h 89 % 0.0 in /  0 mm
14:17 9.2 °F /  -12.7 °C 7.3 °F /  -13.7 °C 1026.3 in /  34750.5 hPa ENE 1.6 mph /  2.6 km/h 16.1 mph /  25.9 km/h 88 % 0.0 in /  0 mm
14:22 9.2 °F /  -12.7 °C 7.3 °F /  -13.7 °C 1026.3 in /  34750.5 hPa East 3.2 mph /  5.1 km/h 16.1 mph /  25.9 km/h 88 % 0.0 in /  0 mm
14:32 9.3 °F /  -12.6 °C 7.4 °F /  -13.7 °C 1026.3 in /  34750.5 hPa NE 6.4 mph /  10.3 km/h 9.7 mph /  15.6 km/h 88 % 0.0 in /  0 mm
14:37 9.3 °F /  -12.6 °C 7.4 °F /  -13.7 °C 1026.3 in /  34750.5 hPa North 4.8 mph /  7.7 km/h 11.3 mph /  18.2 km/h 88 % 0.0 in /  0 mm
14:42 9.3 °F /  -12.6 °C 7.4 °F /  -13.7 °C 1026.3 in /  34750.5 hPa ENE 4.8 mph /  7.7 km/h 12.9 mph /  20.8 km/h 88 % 0.0 in /  0 mm
14:52 9.4 °F /  -12.6 °C 7.5 °F /  -13.6 °C 1026.0 in /  34740.4 hPa NE 6.4 mph /  10.3 km/h 9.7 mph /  15.6 km/h 88 % 0.0 in /  0 mm
14:57 9.4 °F /  -12.6 °C 7.5 °F /  -13.6 °C 1026.0 in /  34740.4 hPa ENE 1.6 mph /  2.6 km/h 11.3 mph /  18.2 km/h 88 % 0.0 in /  0 mm
15:02 9.4 °F /  -12.6 °C 7.5 °F /  -13.6 °C 1026.0 in /  34740.4 hPa NE 8.0 mph /  12.9 km/h 11.3 mph /  18.2 km/h 88 % 0.0 in /  0 mm
15:07 9.4 °F /  -12.6 °C 7.5 °F /  -13.6 °C 1026.0 in /  34740.4 hPa NE 8.0 mph /  12.9 km/h 11.3 mph /  18.2 km/h 88 % 0.0 in /  0 mm
15:12 9.4 °F /  -12.6 °C 7.5 °F /  -13.6 °C 1026.0 in /  34740.4 hPa NE 4.8 mph /  7.7 km/h 11.3 mph /  18.2 km/h 88 % 0.0 in /  0 mm
15:17 9.4 °F /  -12.6 °C 7.5 °F /  -13.6 °C 1026.0 in /  34740.4 hPa NE 4.8 mph /  7.7 km/h 11.3 mph /  18.2 km/h 88 % 0.0 in /  0 mm
15:22 9.6 °F /  -12.4 °C 7.7 °F /  -13.5 °C 1026.0 in /  34740.4 hPa NNE 4.8 mph /  7.7 km/h 9.7 mph /  15.6 km/h 88 % 0.0 in /  0 mm
15:27 9.8 °F /  -12.3 °C 7.9 °F /  -13.4 °C 1026.0 in /  34740.4 hPa North 4.8 mph /  7.7 km/h 8.0 mph /  12.9 km/h 88 % 0.0 in /  0 mm
15:32 10.0 °F /  -12.2 °C 8.1 °F /  -13.3 °C 1026.0 in /  34740.4 hPa NE 6.4 mph /  10.3 km/h 9.7 mph /  15.6 km/h 88 % 0.0 in /  0 mm
15:37 10.2 °F /  -12.1 °C 8.1 °F /  -13.3 °C 1026.0 in /  34740.4 hPa NE 3.2 mph /  5.1 km/h 11.3 mph /  18.2 km/h 87 % 0.0 in /  0 mm
15:42 10.2 °F /  -12.1 °C 8.1 °F /  -13.3 °C 1026.0 in /  34740.4 hPa ENE 3.2 mph /  5.1 km/h 11.3 mph /  18.2 km/h 87 % 0.0 in /  0 mm
15:47 10.1 °F /  -12.2 °C 7.9 °F /  -13.4 °C 1026.0 in /  34740.4 hPa NE 3.2 mph /  5.1 km/h 11.3 mph /  18.2 km/h 86 % 0.0 in /  0 mm
15:52 10.0 °F /  -12.2 °C 7.9 °F /  -13.4 °C 1026.0 in /  34740.4 hPa North 3.2 mph /  5.1 km/h 9.7 mph /  15.6 km/h 87 % 0.0 in /  0 mm
15:57 9.9 °F /  -12.3 °C 7.8 °F /  -13.4 °C 1026.0 in /  34740.4 hPa NE 4.8 mph /  7.7 km/h 9.7 mph /  15.6 km/h 87 % 0.0 in /  0 mm
16:02 9.8 °F /  -12.3 °C 7.7 °F /  -13.5 °C 1026.0 in /  34740.4 hPa NE 3.2 mph /  5.1 km/h 9.7 mph /  15.6 km/h 87 % 0.0 in /  0 mm
16:12 10.0 °F /  -12.2 °C 7.9 °F /  -13.4 °C 1026.0 in /  34740.4 hPa NE 3.2 mph /  5.1 km/h 9.7 mph /  15.6 km/h 87 % 0.0 in /  0 mm
16:17 10.1 °F /  -12.2 °C 8.0 °F /  -13.3 °C 1026.0 in /  34740.4 hPa NE 6.4 mph /  10.3 km/h 9.7 mph /  15.6 km/h 87 % 0.0 in /  0 mm
16:22 10.0 °F /  -12.2 °C 7.9 °F /  -13.4 °C 1026.0 in /  34740.4 hPa NNE 4.8 mph /  7.7 km/h 9.7 mph /  15.6 km/h 87 % 0.0 in /  0 mm
16:32 9.8 °F /  -12.3 °C 7.7 °F /  -13.5 °C 1026.0 in /  34740.4 hPa NNE 3.2 mph /  5.1 km/h 9.7 mph /  15.6 km/h 87 % 0.0 in /  0 mm
16:37 9.8 °F /  -12.3 °C 7.7 °F /  -13.5 °C 1026.0 in /  34740.4 hPa NE 6.4 mph /  10.3 km/h 11.3 mph /  18.2 km/h 87 % 0.0 in /  0 mm
16:42 9.7 °F /  -12.4 °C 7.8 °F /  -13.4 °C 1026.0 in /  34740.4 hPa NE 8.0 mph /  12.9 km/h 11.3 mph /  18.2 km/h 88 % 0.0 in /  0 mm
16:52 9.6 °F /  -12.4 °C 7.7 °F /  -13.5 °C 1026.0 in /  34740.4 hPa NE 9.7 mph /  15.6 km/h 14.5 mph /  23.3 km/h 88 % 0.0 in /  0 mm
16:57 9.6 °F /  -12.4 °C 7.7 °F /  -13.5 °C 1026.0 in /  34740.4 hPa NE 8.0 mph /  12.9 km/h 14.5 mph /  23.3 km/h 88 % 0.0 in /  0 mm
17:02 9.5 °F /  -12.5 °C 7.6 °F /  -13.6 °C 1026.0 in /  34740.4 hPa NNW 8.0 mph /  12.9 km/h 11.3 mph /  18.2 km/h 88 % 0.0 in /  0 mm
17:07 9.4 °F /  -12.6 °C 7.7 °F /  -13.5 °C 1026.0 in /  34740.4 hPa NNE 4.8 mph /  7.7 km/h 14.5 mph /  23.3 km/h 89 % 0.0 in /  0 mm
17:12 9.3 °F /  -12.6 °C 7.6 °F /  -13.6 °C 1026.0 in /  34740.4 hPa NNE 8.0 mph /  12.9 km/h 14.5 mph /  23.3 km/h 89 % 0.0 in /  0 mm
17:22 9.1 °F /  -12.7 °C 7.4 °F /  -13.7 °C 1026.0 in /  34740.4 hPa NNW 8.0 mph /  12.9 km/h 14.5 mph /  23.3 km/h 89 % 0.0 in /  0 mm
17:27 8.9 °F /  -12.8 °C 7.3 °F /  -13.7 °C 1026.3 in /  34750.5 hPa NW 3.2 mph /  5.1 km/h 12.9 mph /  20.8 km/h 90 % 0.0 in /  0 mm
17:32 8.9 °F /  -12.8 °C 7.3 °F /  -13.7 °C 1026.3 in /  34750.5 hPa NNE 4.8 mph /  7.7 km/h 12.9 mph /  20.8 km/h 90 % 0.0 in /  0 mm
17:37 8.9 °F /  -12.8 °C 7.3 °F /  -13.7 °C 1026.3 in /  34750.5 hPa NE 8.0 mph /  12.9 km/h 14.5 mph /  23.3 km/h 90 % 0.0 in /  0 mm
17:42 8.8 °F /  -12.9 °C 7.2 °F /  -13.8 °C 1026.3 in /  34750.5 hPa East 6.4 mph /  10.3 km/h 14.5 mph /  23.3 km/h 90 % 0.0 in /  0 mm
17:52 8.8 °F /  -12.9 °C 7.4 °F /  -13.7 °C 1026.3 in /  34750.5 hPa NNE 4.8 mph /  7.7 km/h 14.5 mph /  23.3 km/h 91 % 0.0 in /  0 mm
17:57 8.7 °F /  -12.9 °C 7.3 °F /  -13.7 °C 1026.0 in /  34740.4 hPa NNE 6.4 mph /  10.3 km/h 12.9 mph /  20.8 km/h 91 % 0.0 in /  0 mm
18:12 8.6 °F /  -13 °C 7.4 °F /  -13.7 °C 1026.0 in /  34740.4 hPa NW 3.2 mph /  5.1 km/h 11.3 mph /  18.2 km/h 92 % 0.0 in /  0 mm
18:17 8.6 °F /  -13 °C 7.4 °F /  -13.7 °C 1026.0 in /  34740.4 hPa NW 1.6 mph /  2.6 km/h 11.3 mph /  18.2 km/h 92 % 0.0 in /  0 mm
18:22 8.6 °F /  -13 °C 7.4 °F /  -13.7 °C 1026.0 in /  34740.4 hPa Calm   12.9 mph /  20.8 km/h 92 % 0.0 in /  0 mm
18:32 8.4 °F /  -13.1 °C 7.2 °F /  -13.8 °C 1026.0 in /  34740.4 hPa NNW 3.2 mph /  5.1 km/h 11.3 mph /  18.2 km/h 92 % 0.0 in /  0 mm
18:37 8.4 °F /  -13.1 °C 7.2 °F /  -13.8 °C 1026.0 in /  34740.4 hPa NNE 4.8 mph /  7.7 km/h 8.0 mph /  12.9 km/h 92 % 0.0 in /  0 mm
18:42 8.4 °F /  -13.1 °C 7.2 °F /  -13.8 °C 1026.3 in /  34750.5 hPa ENE 1.6 mph /  2.6 km/h 8.0 mph /  12.9 km/h 92 % 0.0 in /  0 mm
18:47 8.4 °F /  -13.1 °C 7.2 °F /  -13.8 °C 1026.3 in /  34750.5 hPa ENE 1.6 mph /  2.6 km/h 11.3 mph /  18.2 km/h 92 % 0.0 in /  0 mm
18:52 8.4 °F /  -13.1 °C 7.2 °F /  -13.8 °C 1026.3 in /  34750.5 hPa NNW 4.8 mph /  7.7 km/h 11.3 mph /  18.2 km/h 92 % 0.0 in /  0 mm
18:57 8.3 °F /  -13.2 °C 7.1 °F /  -13.8 °C 1026.3 in /  34750.5 hPa NNE 3.2 mph /  5.1 km/h 9.7 mph /  15.6 km/h 92 % 0.0 in /  0 mm
19:02 8.3 °F /  -13.2 °C 6.9 °F /  -13.9 °C 1026.3 in /  34750.5 hPa ENE 4.8 mph /  7.7 km/h 14.5 mph /  23.3 km/h 91 % 0.0 in /  0 mm
19:12 8.3 °F /  -13.2 °C 6.9 °F /  -13.9 °C 1026.3 in /  34750.5 hPa NNE 4.8 mph /  7.7 km/h 19.3 mph /  31.1 km/h 91 % 0.0 in /  0 mm
19:17 8.3 °F /  -13.2 °C 6.9 °F /  -13.9 °C 1026.3 in /  34750.5 hPa NNW 6.4 mph /  10.3 km/h 19.3 mph /  31.1 km/h 91 % 0.0 in /  0 mm
19:22 8.3 °F /  -13.2 °C 7.1 °F /  -13.8 °C 1026.3 in /  34750.5 hPa North 1.6 mph /  2.6 km/h 12.9 mph /  20.8 km/h 92 % 0.0 in /  0 mm
19:32 8.2 °F /  -13.2 °C 7.0 °F /  -13.9 °C 1026.3 in /  34750.5 hPa NNE 4.8 mph /  7.7 km/h 12.9 mph /  20.8 km/h 92 % 0.0 in /  0 mm
19:37 8.2 °F /  -13.2 °C 7.0 °F /  -13.9 °C 1026.3 in /  34750.5 hPa North 1.6 mph /  2.6 km/h 11.3 mph /  18.2 km/h 92 % 0.0 in /  0 mm
19:42 8.2 °F /  -13.2 °C 7.0 °F /  -13.9 °C 1026.6 in /  34760.7 hPa NE 11.3 mph /  18.2 km/h 11.3 mph /  18.2 km/h 92 % 0.0 in /  0 mm
19:47 8.2 °F /  -13.2 °C 7.0 °F /  -13.9 °C 1026.6 in /  34760.7 hPa North 1.6 mph /  2.6 km/h 11.3 mph /  18.2 km/h 92 % 0.0 in /  0 mm
19:57 8.1 °F /  -13.3 °C 6.9 °F /  -13.9 °C 1026.6 in /  34760.7 hPa NE 4.8 mph /  7.7 km/h 11.3 mph /  18.2 km/h 92 % 0.0 in /  0 mm
20:02 8.1 °F /  -13.3 °C 6.9 °F /  -13.9 °C 1026.6 in /  34760.7 hPa NE 3.2 mph /  5.1 km/h 8.0 mph /  12.9 km/h 92 % 0.0 in /  0 mm
20:12 8.0 °F /  -13.3 °C 6.8 °F /  -14 °C 1026.6 in /  34760.7 hPa NE 3.2 mph /  5.1 km/h 8.0 mph /  12.9 km/h 92 % 0.0 in /  0 mm
20:17 8.0 °F /  -13.3 °C 6.8 °F /  -14 °C 1026.6 in /  34760.7 hPa NE 3.2 mph /  5.1 km/h 9.7 mph /  15.6 km/h 92 % 0.0 in /  0 mm
20:22 7.9 °F /  -13.4 °C 6.7 °F /  -14.1 °C 1026.6 in /  34760.7 hPa North 6.4 mph /  10.3 km/h 11.3 mph /  18.2 km/h 92 % 0.0 in /  0 mm
20:32 7.9 °F /  -13.4 °C 6.7 °F /  -14.1 °C 1026.6 in /  34760.7 hPa NNE 4.8 mph /  7.7 km/h 11.3 mph /  18.2 km/h 92 % 0.0 in /  0 mm
20:42 7.9 °F /  -13.4 °C 6.8 °F /  -14 °C 1026.6 in /  34760.7 hPa NE 3.2 mph /  5.1 km/h 9.7 mph /  15.6 km/h 93 % 0.0 in /  0 mm
20:47 7.9 °F /  -13.4 °C 6.8 °F /  -14 °C 1026.6 in /  34760.7 hPa NNE 6.4 mph /  10.3 km/h 8.0 mph /  12.9 km/h 93 % 0.0 in /  0 mm
20:52 7.9 °F /  -13.4 °C 6.8 °F /  -14 °C 1026.6 in /  34760.7 hPa NNW 4.8 mph /  7.7 km/h 12.9 mph /  20.8 km/h 93 % 0.0 in /  0 mm
20:57 7.9 °F /  -13.4 °C 6.8 °F /  -14 °C 1026.6 in /  34760.7 hPa North 1.6 mph /  2.6 km/h 12.9 mph /  20.8 km/h 93 % 0.0 in /  0 mm
21:02 7.8 °F /  -13.4 °C 6.7 °F /  -14.1 °C 1026.6 in /  34760.7 hPa North 9.7 mph /  15.6 km/h 12.9 mph /  20.8 km/h 93 % 0.0 in /  0 mm
21:12 7.8 °F /  -13.4 °C 6.7 °F /  -14.1 °C 1026.6 in /  34760.7 hPa NNE 4.8 mph /  7.7 km/h 17.7 mph /  28.5 km/h 93 % 0.0 in /  0 mm
21:17 7.8 °F /  -13.4 °C 6.7 °F /  -14.1 °C 1026.6 in /  34760.7 hPa NNE 1.6 mph /  2.6 km/h 17.7 mph /  28.5 km/h 93 % 0.0 in /  0 mm
21:22 7.8 °F /  -13.4 °C 6.7 °F /  -14.1 °C 1026.6 in /  34760.7 hPa NNE 4.8 mph /  7.7 km/h 17.7 mph /  28.5 km/h 93 % 0.0 in /  0 mm
21:27 7.8 °F /  -13.4 °C 6.7 °F /  -14.1 °C 1026.6 in /  34760.7 hPa NNW 3.2 mph /  5.1 km/h 11.3 mph /  18.2 km/h 93 % 0.0 in /  0 mm
21:32 7.7 °F /  -13.5 °C 6.8 °F /  -14 °C 1026.6 in /  34760.7 hPa North 1.6 mph /  2.6 km/h 9.7 mph /  15.6 km/h 94 % 0.0 in /  0 mm
21:37 7.7 °F /  -13.5 °C 6.8 °F /  -14 °C 1026.6 in /  34760.7 hPa Calm   11.3 mph /  18.2 km/h 94 % 0.0 in /  0 mm
21:42 7.7 °F /  -13.5 °C 6.8 °F /  -14 °C 1026.6 in /  34760.7 hPa NNE 3.2 mph /  5.1 km/h 11.3 mph /  18.2 km/h 94 % 0.0 in /  0 mm
21:47 7.7 °F /  -13.5 °C 6.8 °F /  -14 °C 1026.6 in /  34760.7 hPa North 3.2 mph /  5.1 km/h 11.3 mph /  18.2 km/h 94 % 0.0 in /  0 mm
21:52 7.7 °F /  -13.5 °C 6.8 °F /  -14 °C 1026.6 in /  34760.7 hPa Calm   8.0 mph /  12.9 km/h 94 % 0.0 in /  0 mm
21:57 7.6 °F /  -13.6 °C 6.7 °F /  -14.1 °C 1026.6 in /  34760.7 hPa North 1.6 mph /  2.6 km/h 8.0 mph /  12.9 km/h 94 % 0.0 in /  0 mm
22:02 7.6 °F /  -13.6 °C 6.7 °F /  -14.1 °C 1026.6 in /  34760.7 hPa Calm   11.3 mph /  18.2 km/h 94 % 0.0 in /  0 mm
22:12 7.6 °F /  -13.6 °C 6.7 °F /  -14.1 °C 1026.6 in /  34760.7 hPa NNE 11.3 mph /  18.2 km/h 11.3 mph /  18.2 km/h 94 % 0.0 in /  0 mm
22:22 7.6 °F /  -13.6 °C 6.9 °F /  -13.9 °C 1026.6 in /  34760.7 hPa Calm   12.9 mph /  20.8 km/h 95 % 0.0 in /  0 mm
22:27 7.5 °F /  -13.6 °C 6.8 °F /  -14 °C 1026.6 in /  34760.7 hPa NNW 1.6 mph /  2.6 km/h 12.9 mph /  20.8 km/h 95 % 0.0 in /  0 mm
22:37 7.5 °F /  -13.6 °C 6.8 °F /  -14 °C 1026.6 in /  34760.7 hPa NNW 1.6 mph /  2.6 km/h 11.3 mph /  18.2 km/h 95 % 0.0 in /  0 mm
22:42 7.5 °F /  -13.6 °C 6.8 °F /  -14 °C 1027.0 in /  34774.2 hPa NW 4.8 mph /  7.7 km/h 11.3 mph /  18.2 km/h 95 % 0.0 in /  0 mm
22:47 7.4 °F /  -13.7 °C 6.7 °F /  -14.1 °C 1027.0 in /  34774.2 hPa North 6.4 mph /  10.3 km/h 9.7 mph /  15.6 km/h 95 % 0.0 in /  0 mm
22:52 7.4 °F /  -13.7 °C 6.7 °F /  -14.1 °C 1027.0 in /  34774.2 hPa NNW 4.8 mph /  7.7 km/h 12.9 mph /  20.8 km/h 95 % 0.0 in /  0 mm
22:57 7.4 °F /  -13.7 °C 6.7 °F /  -14.1 °C 1026.6 in /  34760.7 hPa North 3.2 mph /  5.1 km/h 12.9 mph /  20.8 km/h 95 % 0.0 in /  0 mm
23:02 7.4 °F /  -13.7 °C 6.7 °F /  -14.1 °C 1026.6 in /  34760.7 hPa NNE 6.4 mph /  10.3 km/h 12.9 mph /  20.8 km/h 95 % 0.0 in /  0 mm
23:07 7.3 °F /  -13.7 °C 6.6 °F /  -14.1 °C 1026.6 in /  34760.7 hPa NNE 3.2 mph /  5.1 km/h 12.9 mph /  20.8 km/h 95 % 0.0 in /  0 mm
23:12 7.3 °F /  -13.7 °C 6.6 °F /  -14.1 °C 1027.0 in /  34774.2 hPa NE 1.6 mph /  2.6 km/h 11.3 mph /  18.2 km/h 95 % 0.0 in /  0 mm
23:22 7.2 °F /  -13.8 °C 6.3 °F /  -14.3 °C 1026.6 in /  34760.7 hPa NE 3.2 mph /  5.1 km/h 9.7 mph /  15.6 km/h 94 % 0.0 in /  0 mm
23:32 7.2 °F /  -13.8 °C 6.3 °F /  -14.3 °C 1026.6 in /  34760.7 hPa NNE 1.6 mph /  2.6 km/h 11.3 mph /  18.2 km/h 94 % 0.0 in /  0 mm
23:37 7.1 °F /  -13.8 °C 6.2 °F /  -14.3 °C 1026.6 in /  34760.7 hPa NNW 3.2 mph /  5.1 km/h 11.3 mph /  18.2 km/h 94 % 0.0 in /  0 mm
23:42 7.1 °F /  -13.8 °C 6.2 °F /  -14.3 °C 1026.6 in /  34760.7 hPa NNW 3.2 mph /  5.1 km/h 11.3 mph /  18.2 km/h 94 % 0.0 in /  0 mm
23:47 7.1 °F /  -13.8 °C 6.2 °F /  -14.3 °C 1026.6 in /  34760.7 hPa NE 6.4 mph /  10.3 km/h 11.3 mph /  18.2 km/h 94 % 0.0 in /  0 mm
23:52 7.1 °F /  -13.8 °C 6.2 °F /  -14.3 °C 1026.6 in /  34760.7 hPa NNE 8.0 mph /  12.9 km/h 9.7 mph /  15.6 km/h 94 % 0.0 in /  0 mm
Meteo18
Compliments of Weather Underground - 4 mb

Script developed by  Jim McMurry - jmcmurry@mwt.net Adapted for the template by  Wim van der Kuil - Leuven-Template.eu

You find our weather info also at:

European Weather Network

Weather Underground

Equipment we use:

Weather-station
Davis Vue

Weather-program
Meteobridge

Weather-server
Raspberry PI 2 B+

Provider
1 and 1

Davis Vue

Meteobridge

Raspberry PI 2 B+

1 and 1